sensor_id;sensor_type;location;lat;lon;timestamp;pressure;altitude;pressure_sealevel;temperature;humidity
58243;BME280;50118;53.232;8.252;2022-07-17T00:00:57;102581.09;;;9.46;100.00
58243;BME280;50118;53.232;8.252;2022-07-17T00:03:23;102575.19;;;9.41;100.00
58243;BME280;50118;53.232;8.252;2022-07-17T00:05:48;102587.56;;;9.42;100.00
58243;BME280;50118;53.232;8.252;2022-07-17T00:08:14;102584.41;;;9.35;100.00
58243;BME280;50118;53.232;8.252;2022-07-17T00:10:41;102587.47;;;9.43;100.00
58243;BME280;50118;53.232;8.252;2022-07-17T00:13:07;102590.22;;;9.42;100.00
58243;BME280;50118;53.232;8.252;2022-07-17T00:15:33;102581.56;;;9.38;100.00
58243;BME280;50118;53.232;8.252;2022-07-17T00:17:59;102586.00;;;9.38;100.00
58243;BME280;50118;53.232;8.252;2022-07-17T00:20:26;102584.31;;;9.37;100.00
58243;BME280;50118;53.232;8.252;2022-07-17T00:22:53;102589.44;;;9.40;100.00
58243;BME280;50118;53.232;8.252;2022-07-17T00:25:19;102588.66;;;9.38;100.00
58243;BME280;50118;53.232;8.252;2022-07-17T00:27:45;102590.66;;;9.34;100.00
58243;BME280;50118;53.232;8.252;2022-07-17T00:30:11;102583.84;;;9.30;100.00
58243;BME280;50118;53.232;8.252;2022-07-17T00:32:38;102589.06;;;9.31;100.00
58243;BME280;50118;53.232;8.252;2022-07-17T00:35:04;102588.28;;;9.29;100.00
58243;BME280;50118;53.232;8.252;2022-07-17T00:37:29;102588.34;;;9.28;100.00
58243;BME280;50118;53.232;8.252;2022-07-17T00:39:55;102590.16;;;9.27;100.00
58243;BME280;50118;53.232;8.252;2022-07-17T00:42:20;102587.91;;;9.21;100.00
58243;BME280;50118;53.232;8.252;2022-07-17T00:44:46;102584.34;;;9.21;100.00
58243;BME280;50118;53.232;8.252;2022-07-17T00:47:19;102592.25;;;9.22;100.00
58243;BME280;50118;53.232;8.252;2022-07-17T00:49:46;102590.72;;;9.18;100.00
58243;BME280;50118;53.232;8.252;2022-07-17T00:52:13;102589.00;;;9.17;100.00
58243;BME280;50118;53.232;8.252;2022-07-17T00:54:42;102596.91;;;9.19;100.00
58243;BME280;50118;53.232;8.252;2022-07-17T00:57:10;102589.00;;;9.17;100.00
58243;BME280;50118;53.232;8.252;2022-07-17T00:59:37;102592.34;;;9.21;100.00
58243;BME280;50118;53.232;8.252;2022-07-17T01:02:06;102593.47;;;9.16;100.00
58243;BME280;50118;53.232;8.252;2022-07-17T01:04:33;102587.09;;;9.19;100.00
58243;BME280;50118;53.232;8.252;2022-07-17T01:06:59;102583.16;;;9.26;100.00
58243;BME280;50118;53.232;8.252;2022-07-17T01:09:26;102590.56;;;9.21;100.00
58243;BME280;50118;53.232;8.252;2022-07-17T01:11:52;102587.31;;;9.16;100.00
58243;BME280;50118;53.232;8.252;2022-07-17T01:14:18;102589.00;;;9.17;100.00
58243;BME280;50118;53.232;8.252;2022-07-17T01:16:44;102586.44;;;9.15;100.00
58243;BME280;50118;53.232;8.252;2022-07-17T01:19:10;102582.94;;;9.15;100.00
58243;BME280;50118;53.232;8.252;2022-07-17T01:21:44;102579.72;;;9.24;100.00
58243;BME280;50118;53.232;8.252;2022-07-17T01:24:10;102587.09;;;9.19;100.00
58243;BME280;50118;53.232;8.252;2022-07-17T01:26:36;102580.28;;;9.15;100.00
58243;BME280;50118;53.232;8.252;2022-07-17T01:29:02;102585.00;;;9.10;100.00
58243;BME280;50118;53.232;8.252;2022-07-17T01:31:28;102583.03;;;9.13;100.00
58243;BME280;50118;53.232;8.252;2022-07-17T01:33:58;102584.66;;;9.16;100.00
58243;BME280;50118;53.232;8.252;2022-07-17T01:36:27;102582.75;;;9.18;100.00
58243;BME280;50118;53.232;8.252;2022-07-17T01:38:53;102589.00;;;9.17;100.00
58243;BME280;50118;53.232;8.252;2022-07-17T01:41:20;102585.41;;;9.18;100.00
58243;BME280;50118;53.232;8.252;2022-07-17T01:43:45;102584.66;;;9.16;100.00
58243;BME280;50118;53.232;8.252;2022-07-17T01:46:10;102580.28;;;9.15;100.00
58243;BME280;50118;53.232;8.252;2022-07-17T01:48:36;102587.31;;;9.16;100.00
58243;BME280;50118;53.232;8.252;2022-07-17T01:51:03;102588.44;;;9.12;100.00
58243;BME280;50118;53.232;8.252;2022-07-17T01:53:28;102588.34;;;9.13;100.00
58243;BME280;50118;53.232;8.252;2022-07-17T01:55:54;102588.50;;;9.10;100.00
58243;BME280;50118;53.232;8.252;2022-07-17T01:58:19;102588.69;;;9.07;100.00
58243;BME280;50118;53.232;8.252;2022-07-17T02:00:45;102589.06;;;9.01;100.00
58243;BME280;50118;53.232;8.252;2022-07-17T02:03:10;102587.34;;;9.00;100.00
58243;BME280;50118;53.232;8.252;2022-07-17T02:05:36;102588.41;;;8.97;100.00
58243;BME280;50118;53.232;8.252;2022-07-17T02:08:02;102589.41;;;8.95;100.00
58243;BME280;50118;53.232;8.252;2022-07-17T02:10:27;102584.28;;;8.92;100.00
58243;BME280;50118;53.232;8.252;2022-07-17T02:12:53;102579.03;;;8.90;100.00
58243;BME280;50118;53.232;8.252;2022-07-17T02:15:18;102588.91;;;8.88;100.00
58243;BME280;50118;53.232;8.252;2022-07-17T02:17:44;102592.53;;;8.87;100.00
58243;BME280;50118;53.232;8.252;2022-07-17T02:20:11;102596.03;;;8.88;100.00
58243;BME280;50118;53.232;8.252;2022-07-17T02:22:37;102591.84;;;8.84;100.00
58243;BME280;50118;53.232;8.252;2022-07-17T02:25:03;102598.88;;;8.85;100.00
58243;BME280;50118;53.232;8.252;2022-07-17T02:27:31;102600.25;;;8.76;100.00
58243;BME280;50118;53.232;8.252;2022-07-17T02:29:56;102597.84;;;8.71;100.00
58243;BME280;50118;53.232;8.252;2022-07-17T02:32:22;102602.47;;;8.68;100.00
58243;BME280;50118;53.232;8.252;2022-07-17T02:34:47;102597.94;;;8.70;100.00
58243;BME280;50118;53.232;8.252;2022-07-17T02:37:13;102600.59;;;8.70;100.00
58243;BME280;50118;53.232;8.252;2022-07-17T02:39:38;102611.22;;;8.70;100.00
58243;BME280;50118;53.232;8.252;2022-07-17T02:42:18;102624.69;;;8.67;100.00
58243;BME280;50118;53.232;8.252;2022-07-17T02:44:44;102623.91;;;8.65;100.00
58243;BME280;50118;53.232;8.252;2022-07-17T02:47:09;102627.00;;;8.73;100.00
58243;BME280;50118;53.232;8.252;2022-07-17T02:49:34;102618.00;;;8.75;100.00
58243;BME280;50118;53.232;8.252;2022-07-17T02:52:00;102619.97;;;8.72;100.00
58243;BME280;50118;53.232;8.252;2022-07-17T02:54:25;102627.06;;;8.71;100.00
58243;BME280;50118;53.232;8.252;2022-07-17T02:56:50;102617.41;;;8.70;100.00
58243;BME280;50118;53.232;8.252;2022-07-17T02:59:16;102628.72;;;8.74;100.00
58243;BME280;50118;53.232;8.252;2022-07-17T03:01:41;102611.91;;;8.73;100.00
58243;BME280;50118;53.232;8.252;2022-07-17T03:04:06;102619.88;;;8.73;100.00
58243;BME280;50118;53.232;8.252;2022-07-17T03:06:32;102617.22;;;8.73;100.00
58243;BME280;50118;53.232;8.252;2022-07-17T03:08:57;102613.53;;;8.76;100.00
58243;BME280;50118;53.232;8.252;2022-07-17T03:11:23;102606.41;;;8.76;100.00
58243;BME280;50118;53.232;8.252;2022-07-17T03:13:48;102598.34;;;8.78;100.00
58243;BME280;50118;53.232;8.252;2022-07-17T03:16:13;102599.72;;;8.85;100.00
58243;BME280;50118;53.232;8.252;2022-07-17T03:18:39;102591.75;;;8.85;100.00
58243;BME280;50118;53.232;8.252;2022-07-17T03:21:04;102574.88;;;8.86;100.00
58243;BME280;50118;53.232;8.252;2022-07-17T03:23:30;102573.13;;;8.85;100.00
58243;BME280;50118;53.232;8.252;2022-07-17T03:25:56;102577.53;;;8.86;100.00
58243;BME280;50118;53.232;8.252;2022-07-17T03:28:22;102588.75;;;8.91;100.00
58243;BME280;50118;53.232;8.252;2022-07-17T03:30:47;102603.84;;;8.91;100.00
58243;BME280;50118;53.232;8.252;2022-07-17T03:33:12;102625.28;;;8.88;100.00
58243;BME280;50118;53.232;8.252;2022-07-17T03:35:38;102634.69;;;8.93;100.00
58243;BME280;50118;53.232;8.252;2022-07-17T03:38:03;102634.50;;;8.96;100.00
58243;BME280;50118;53.232;8.252;2022-07-17T03:40:29;102624.06;;;8.93;100.00
58243;BME280;50118;53.232;8.252;2022-07-17T03:42:55;102622.16;;;8.95;100.00
58243;BME280;50118;53.232;8.252;2022-07-17T03:45:20;102621.22;;;8.96;100.00
58243;BME280;50118;53.232;8.252;2022-07-17T03:47:46;102618.56;;;8.96;100.00
58243;BME280;50118;53.232;8.252;2022-07-17T03:50:11;102631.78;;;8.98;100.00
58243;BME280;50118;53.232;8.252;2022-07-17T03:52:37;102632.44;;;9.02;100.00
58243;BME280;50118;53.232;8.252;2022-07-17T03:55:02;102628.66;;;9.06;100.00
58243;BME280;50118;53.232;8.252;2022-07-17T03:57:28;102622.31;;;9.08;100.00
58243;BME280;50118;53.232;8.252;2022-07-17T03:59:53;102627.19;;;9.16;100.00
58243;BME280;50118;53.232;8.252;2022-07-17T04:02:19;102625.97;;;9.22;100.00
58243;BME280;50118;53.232;8.252;2022-07-17T04:04:45;102625.72;;;9.26;100.00
58243;BME280;50118;53.232;8.252;2022-07-17T04:07:10;102635.56;;;9.24;100.00
58243;BME280;50118;53.232;8.252;2022-07-17T04:09:53;102625.31;;;9.32;100.00
58243;BME280;50118;53.232;8.252;2022-07-17T04:12:18;102635.63;;;9.39;100.00
58243;BME280;50118;53.232;8.252;2022-07-17T04:14:44;102623.91;;;9.41;100.00
58243;BME280;50118;53.232;8.252;2022-07-17T04:17:09;102614.91;;;9.44;100.00
58243;BME280;50118;53.232;8.252;2022-07-17T04:19:35;102620.25;;;9.58;100.00
58243;BME280;50118;53.232;8.252;2022-07-17T04:22:00;102622.94;;;9.72;100.00
58243;BME280;50118;53.232;8.252;2022-07-17T04:24:25;102621.03;;;9.89;100.00
58243;BME280;50118;53.232;8.252;2022-07-17T04:26:51;102626.16;;;9.92;100.00
58243;BME280;50118;53.232;8.252;2022-07-17T04:29:16;102633.59;;;10.01;100.00
58243;BME280;50118;53.232;8.252;2022-07-17T04:31:41;102642.81;;;10.10;100.00
58243;BME280;50118;53.232;8.252;2022-07-17T04:34:07;102647.09;;;10.13;100.00
58243;BME280;50118;53.232;8.252;2022-07-17T04:36:32;102639.66;;;10.18;100.00
58243;BME280;50118;53.232;8.252;2022-07-17T04:38:57;102628.25;;;10.30;100.00
58243;BME280;50118;53.232;8.252;2022-07-17T04:41:23;102637.78;;;10.34;100.00
58243;BME280;50118;53.232;8.252;2022-07-17T04:43:48;102638.53;;;10.36;100.00
58243;BME280;50118;53.232;8.252;2022-07-17T04:46:14;102629.78;;;10.34;100.00
58243;BME280;50118;53.232;8.252;2022-07-17T04:48:39;102637.69;;;10.36;100.00
58243;BME280;50118;53.232;8.252;2022-07-17T04:51:04;102638.91;;;10.30;100.00
58243;BME280;50118;53.232;8.252;2022-07-17T04:53:30;102638.72;;;10.33;100.00
58243;BME280;50118;53.232;8.252;2022-07-17T04:55:56;102636.84;;;10.35;100.00
58243;BME280;50118;53.232;8.252;2022-07-17T04:58:21;102632.19;;;10.39;100.00
58243;BME280;50118;53.232;8.252;2022-07-17T05:00:47;102625.59;;;10.44;100.00
58243;BME280;50118;53.232;8.252;2022-07-17T05:03:12;102631.88;;;10.43;100.00
58243;BME280;50118;53.232;8.252;2022-07-17T05:05:38;102632.19;;;10.39;100.00
58243;BME280;50118;53.232;8.252;2022-07-17T05:08:05;102623.31;;;10.53;100.00
58243;BME280;50118;53.232;8.252;2022-07-17T05:10:30;102629.19;;;10.58;100.00
58243;BME280;50118;53.232;8.252;2022-07-17T05:12:56;102631.56;;;10.62;100.00
58243;BME280;50118;53.232;8.252;2022-07-17T05:15:22;102632.97;;;10.68;100.00
58243;BME280;50118;53.232;8.252;2022-07-17T05:17:47;102634.47;;;10.72;100.00
58243;BME280;50118;53.232;8.252;2022-07-17T05:20:13;102623.88;;;10.85;100.00
58243;BME280;50118;53.232;8.252;2022-07-17T05:22:38;102616.72;;;10.86;100.00
58243;BME280;50118;53.232;8.252;2022-07-17T05:25:04;102613.03;;;11.01;100.00
58243;BME280;50118;53.232;8.252;2022-07-17T05:27:29;102612.63;;;11.07;100.00
58243;BME280;50118;53.232;8.252;2022-07-17T05:29:55;102604.63;;;11.07;100.00
58243;BME280;50118;53.232;8.252;2022-07-17T05:32:21;102615.22;;;11.21;100.00
58243;BME280;50118;53.232;8.252;2022-07-17T05:34:46;102611.84;;;11.45;100.00
58243;BME280;50118;53.232;8.252;2022-07-17T05:37:11;102619.44;;;11.77;100.00
58243;BME280;50118;53.232;8.252;2022-07-17T05:39:37;102616.53;;;12.19;100.00
58243;BME280;50118;53.232;8.252;2022-07-17T05:42:05;102615.81;;;12.54;100.00
58243;BME280;50118;53.232;8.252;2022-07-17T05:44:51;102625.25;;;12.70;100.00
58243;BME280;50118;53.232;8.252;2022-07-17T05:50:10;102619.28;;;12.91;100.00
58243;BME280;50118;53.232;8.252;2022-07-17T05:52:36;102611.41;;;12.77;99.39
58243;BME280;50118;53.232;8.252;2022-07-17T05:55:02;102614.84;;;12.79;99.78
58243;BME280;50118;53.232;8.252;2022-07-17T05:57:28;102615.81;;;12.78;100.00
58243;BME280;50118;53.232;8.252;2022-07-17T05:59:53;102616.72;;;12.65;100.00
58243;BME280;50118;53.232;8.252;2022-07-17T06:02:22;102612.41;;;12.51;100.00
58243;BME280;50118;53.232;8.252;2022-07-17T06:04:53;102610.88;;;12.60;100.00
58243;BME280;50118;53.232;8.252;2022-07-17T06:07:19;102621.91;;;12.80;100.00
58243;BME280;50118;53.232;8.252;2022-07-17T06:09:44;102624.53;;;12.93;99.90
58243;BME280;50118;53.232;8.252;2022-07-17T06:12:10;102626.22;;;13.18;98.78
58243;BME280;50118;53.232;8.252;2022-07-17T06:14:35;102623.63;;;13.52;96.76
58243;BME280;50118;53.232;8.252;2022-07-17T06:17:02;102626.72;;;13.70;96.39
58243;BME280;50118;53.232;8.252;2022-07-17T06:19:27;102631.34;;;13.68;94.34
58243;BME280;50118;53.232;8.252;2022-07-17T06:21:53;102647.31;;;13.69;95.71
58243;BME280;50118;53.232;8.252;2022-07-17T06:24:18;102650.31;;;13.64;95.06
58243;BME280;50118;53.232;8.252;2022-07-17T06:26:44;102657.06;;;13.81;94.56
58243;BME280;50118;53.232;8.252;2022-07-17T06:29:10;102667.91;;;13.91;93.65
58243;BME280;50118;53.232;8.252;2022-07-17T06:31:35;102676.16;;;13.99;93.30
58243;BME280;50118;53.232;8.252;2022-07-17T06:34:01;102683.84;;;14.04;92.73
58243;BME280;50118;53.232;8.252;2022-07-17T06:36:26;102678.50;;;14.27;92.53
58243;BME280;50118;53.232;8.252;2022-07-17T06:38:51;102685.31;;;14.53;90.17
58243;BME280;50118;53.232;8.252;2022-07-17T06:41:17;102687.13;;;14.75;89.66
58243;BME280;50118;53.232;8.252;2022-07-17T06:43:42;102681.41;;;14.80;87.84
58243;BME280;50118;53.232;8.252;2022-07-17T06:46:08;102678.63;;;15.14;87.81
58243;BME280;50118;53.232;8.252;2022-07-17T06:48:33;102686.44;;;15.06;86.56
58243;BME280;50118;53.232;8.252;2022-07-17T06:50:59;102682.69;;;15.29;86.40
58243;BME280;50118;53.232;8.252;2022-07-17T06:53:28;102680.34;;;15.36;85.62
58243;BME280;50118;53.232;8.252;2022-07-17T06:55:53;102677.25;;;15.41;85.34
58243;BME280;50118;53.232;8.252;2022-07-17T06:58:19;102683.16;;;15.56;84.18
58243;BME280;50118;53.232;8.252;2022-07-17T07:00:44;102681.16;;;15.48;84.04
58243;BME280;50118;53.232;8.252;2022-07-17T07:03:10;102677.72;;;15.46;84.30
58243;BME280;50118;53.232;8.252;2022-07-17T07:05:35;102678.34;;;15.49;84.53
58243;BME280;50118;53.232;8.252;2022-07-17T07:08:04;102686.75;;;15.66;81.29
58243;BME280;50118;53.232;8.252;2022-07-17T07:10:30;102685.72;;;15.57;83.35
58243;BME280;50118;53.232;8.252;2022-07-17T07:12:56;102698.31;;;15.78;82.61
58243;BME280;50118;53.232;8.252;2022-07-17T07:15:22;102696.66;;;15.77;83.37
58243;BME280;50118;53.232;8.252;2022-07-17T07:17:49;102702.94;;;15.87;82.89
58243;BME280;50118;53.232;8.252;2022-07-17T07:20:23;102694.81;;;16.08;81.33
58243;BME280;50118;53.232;8.252;2022-07-17T07:22:49;102698.72;;;16.25;78.78
58243;BME280;50118;53.232;8.252;2022-07-17T07:25:14;102701.50;;;16.14;79.02
58243;BME280;50118;53.232;8.252;2022-07-17T07:27:43;102700.41;;;15.95;79.27
58243;BME280;50118;53.232;8.252;2022-07-17T07:30:29;102699.16;;;16.30;79.19
58243;BME280;50118;53.232;8.252;2022-07-17T07:33:00;102698.00;;;16.23;80.01
58243;BME280;50118;53.232;8.252;2022-07-17T07:35:29;102696.56;;;16.19;79.24
58243;BME280;50118;53.232;8.252;2022-07-17T07:37:55;102698.63;;;16.36;77.61
58243;BME280;50118;53.232;8.252;2022-07-17T07:40:20;102694.38;;;16.34;78.48
58243;BME280;50118;53.232;8.252;2022-07-17T07:42:46;102696.53;;;16.50;76.03
58243;BME280;50118;53.232;8.252;2022-07-17T07:45:12;102690.31;;;16.49;75.80
58243;BME280;50118;53.232;8.252;2022-07-17T07:47:46;102692.22;;;16.68;75.31
58243;BME280;50118;53.232;8.252;2022-07-17T07:50:12;102695.06;;;16.76;76.61
58243;BME280;50118;53.232;8.252;2022-07-17T07:52:39;102692.72;;;16.93;75.00
58243;BME280;50118;53.232;8.252;2022-07-17T07:55:06;102684.09;;;17.18;72.66
58243;BME280;50118;53.232;8.252;2022-07-17T07:57:33;102694.31;;;17.25;72.36
58243;BME280;50118;53.232;8.252;2022-07-17T07:59:59;102695.44;;;17.32;71.84
58243;BME280;50118;53.232;8.252;2022-07-17T08:05:31;102695.16;;;17.35;72.80
58243;BME280;50118;53.232;8.252;2022-07-17T08:07:58;102696.53;;;17.20;71.49
58243;BME280;50118;53.232;8.252;2022-07-17T08:13:47;102699.41;;;17.47;69.96
58243;BME280;50118;53.232;8.252;2022-07-17T08:16:13;102690.44;;;17.47;70.85
58243;BME280;50118;53.232;8.252;2022-07-17T08:18:38;102693.16;;;16.98;72.06
58243;BME280;50118;53.232;8.252;2022-07-17T08:23:48;102696.28;;;17.13;71.63
58243;BME280;50118;53.232;8.252;2022-07-17T08:26:14;102696.69;;;17.28;70.30
58243;BME280;50118;53.232;8.252;2022-07-17T08:28:48;102696.84;;;17.16;70.22
58243;BME280;50118;53.232;8.252;2022-07-17T08:31:14;102699.81;;;17.43;70.84
58243;BME280;50118;53.232;8.252;2022-07-17T08:33:39;102703.59;;;17.79;69.13
58243;BME280;50118;53.232;8.252;2022-07-17T08:36:06;102714.09;;;17.82;68.10
58243;BME280;50118;53.232;8.252;2022-07-17T08:41:36;102713.47;;;18.08;67.10
58243;BME280;50118;53.232;8.252;2022-07-17T08:44:11;102720.66;;;17.89;67.34
58243;BME280;50118;53.232;8.252;2022-07-17T08:46:38;102711.53;;;18.00;66.03
58243;BME280;50118;53.232;8.252;2022-07-17T08:49:05;102711.97;;;17.96;66.52
58243;BME280;50118;53.232;8.252;2022-07-17T08:51:34;102718.03;;;17.98;67.80
58243;BME280;50118;53.232;8.252;2022-07-17T08:54:00;102716.13;;;17.61;66.93
58243;BME280;50118;53.232;8.252;2022-07-17T08:56:27;102712.72;;;17.88;65.24
58243;BME280;50118;53.232;8.252;2022-07-17T08:58:53;102711.31;;;18.21;66.44
58243;BME280;50118;53.232;8.252;2022-07-17T09:01:42;102703.59;;;17.99;67.25
58243;BME280;50118;53.232;8.252;2022-07-17T09:04:07;102709.34;;;18.51;64.71
58243;BME280;50118;53.232;8.252;2022-07-17T09:06:37;102721.31;;;18.39;64.69
58243;BME280;50118;53.232;8.252;2022-07-17T09:09:04;102715.72;;;19.06;61.41
58243;BME280;50118;53.232;8.252;2022-07-17T09:11:29;102703.41;;;18.93;61.68
58243;BME280;50118;53.232;8.252;2022-07-17T09:13:56;102698.44;;;18.71;61.72
58243;BME280;50118;53.232;8.252;2022-07-17T09:16:22;102700.72;;;18.65;62.09
58243;BME280;50118;53.232;8.252;2022-07-17T09:18:48;102697.03;;;19.30;60.79
58243;BME280;50118;53.232;8.252;2022-07-17T09:21:19;102697.31;;;19.63;61.22
58243;BME280;50118;53.232;8.252;2022-07-17T09:23:45;102707.78;;;19.66;59.34
58243;BME280;50118;53.232;8.252;2022-07-17T09:26:11;102703.03;;;19.60;59.21
58243;BME280;50118;53.232;8.252;2022-07-17T09:28:46;102695.56;;;19.18;61.22
58243;BME280;50118;53.232;8.252;2022-07-17T09:31:12;102694.63;;;19.27;61.78
58243;BME280;50118;53.232;8.252;2022-07-17T09:33:40;102696.34;;;19.28;62.57
58243;BME280;50118;53.232;8.252;2022-07-17T09:36:08;102692.34;;;20.03;61.66
58243;BME280;50118;53.232;8.252;2022-07-17T09:38:39;102691.00;;;20.33;58.44
58243;BME280;50118;53.232;8.252;2022-07-17T09:41:06;102684.41;;;21.11;56.41
58243;BME280;50118;53.232;8.252;2022-07-17T09:43:39;102684.78;;;21.66;51.46
58243;BME280;50118;53.232;8.252;2022-07-17T09:46:07;102701.72;;;21.43;51.67
58243;BME280;50118;53.232;8.252;2022-07-17T09:48:33;102693.28;;;21.54;51.18
58243;BME280;50118;53.232;8.252;2022-07-17T09:51:02;102693.91;;;21.40;52.53
58243;BME280;50118;53.232;8.252;2022-07-17T09:53:28;102687.84;;;22.35;51.42
58243;BME280;50118;53.232;8.252;2022-07-17T09:55:55;102691.41;;;21.55;51.98
58243;BME280;50118;53.232;8.252;2022-07-17T09:58:24;102690.47;;;22.12;53.07
58243;BME280;50118;53.232;8.252;2022-07-17T10:00:50;102683.00;;;22.06;51.00
58243;BME280;50118;53.232;8.252;2022-07-17T10:03:19;102688.69;;;21.63;53.96
58243;BME280;50118;53.232;8.252;2022-07-17T10:05:45;102689.97;;;20.85;53.89
58243;BME280;50118;53.232;8.252;2022-07-17T10:08:11;102683.56;;;20.86;55.80
58243;BME280;50118;53.232;8.252;2022-07-17T10:10:37;102679.69;;;21.21;53.80
58243;BME280;50118;53.232;8.252;2022-07-17T10:13:03;102681.94;;;21.51;53.87
58243;BME280;50118;53.232;8.252;2022-07-17T10:15:29;102678.75;;;22.03;51.13
58243;BME280;50118;53.232;8.252;2022-07-17T10:18:07;102687.72;;;22.91;48.90
58243;BME280;50118;53.232;8.252;2022-07-17T10:20:32;102690.47;;;22.12;50.11
58243;BME280;50118;53.232;8.252;2022-07-17T10:22:58;102689.03;;;20.60;55.91
58243;BME280;50118;53.232;8.252;2022-07-17T10:25:24;102686.28;;;19.56;58.16
58243;BME280;50118;53.232;8.252;2022-07-17T10:27:52;102685.69;;;19.71;60.21
58243;BME280;50118;53.232;8.252;2022-07-17T10:30:29;102690.88;;;19.64;60.41
58243;BME280;50118;53.232;8.252;2022-07-17T10:32:58;102684.97;;;19.87;60.13
58243;BME280;50118;53.232;8.252;2022-07-17T10:35:28;102682.97;;;19.89;60.44
58243;BME280;50118;53.232;8.252;2022-07-17T10:38:15;102687.72;;;19.95;58.27
58243;BME280;50118;53.232;8.252;2022-07-17T10:40:41;102687.31;;;20.50;55.75
58243;BME280;50118;53.232;8.252;2022-07-17T10:43:08;102670.50;;;21.88;54.42
58243;BME280;50118;53.232;8.252;2022-07-17T10:45:40;102667.28;;;22.95;49.71
58243;BME280;50118;53.232;8.252;2022-07-17T10:48:10;102664.91;;;23.76;46.06
58243;BME280;50118;53.232;8.252;2022-07-17T10:50:39;102662.66;;;24.24;45.20
58243;BME280;50118;53.232;8.252;2022-07-17T10:55:35;102677.31;;;22.71;49.41
58243;BME280;50118;53.232;8.252;2022-07-17T10:58:02;102671.81;;;22.09;50.94
58243;BME280;50118;53.232;8.252;2022-07-17T11:00:28;102674.97;;;21.64;52.17
58243;BME280;50118;53.232;8.252;2022-07-17T11:02:54;102676.50;;;22.23;51.67
58243;BME280;50118;53.232;8.252;2022-07-17T11:05:20;102672.72;;;22.95;48.41
58243;BME280;50118;53.232;8.252;2022-07-17T11:07:58;102689.84;;;22.72;49.50
58243;BME280;50118;53.232;8.252;2022-07-17T11:10:26;102677.81;;;22.98;48.38
58243;BME280;50118;53.232;8.252;2022-07-17T11:13:06;102675.69;;;23.69;46.73
58243;BME280;50118;53.232;8.252;2022-07-17T11:15:40;102666.03;;;22.83;46.01
58243;BME280;50118;53.232;8.252;2022-07-17T11:18:19;102663.84;;;23.09;46.03
58243;BME280;50118;53.232;8.252;2022-07-17T11:21:02;102665.88;;;22.53;47.62
58243;BME280;50118;53.232;8.252;2022-07-17T11:23:30;102665.44;;;23.19;45.68
58243;BME280;50118;53.232;8.252;2022-07-17T11:26:00;102672.78;;;22.32;46.20
58243;BME280;50118;53.232;8.252;2022-07-17T11:28:28;102673.47;;;22.10;47.41
58243;BME280;50118;53.232;8.252;2022-07-17T11:30:53;102667.78;;;21.96;48.16
58243;BME280;50118;53.232;8.252;2022-07-17T11:33:18;102671.03;;;22.71;45.80
58243;BME280;50118;53.232;8.252;2022-07-17T11:35:46;102653.63;;;24.39;44.80
58243;BME280;50118;53.232;8.252;2022-07-17T11:38:12;102645.22;;;25.13;43.03
58243;BME280;50118;53.232;8.252;2022-07-17T11:40:47;102655.09;;;22.91;45.24
58243;BME280;50118;53.232;8.252;2022-07-17T11:43:13;102648.50;;;22.23;47.69
58243;BME280;50118;53.232;8.252;2022-07-17T11:45:39;102638.56;;;22.78;47.90
58243;BME280;50118;53.232;8.252;2022-07-17T11:48:05;102647.91;;;23.59;47.34
58243;BME280;50118;53.232;8.252;2022-07-17T11:50:31;102648.91;;;24.11;43.53
58243;BME280;50118;53.232;8.252;2022-07-17T11:53:01;102645.84;;;24.36;41.62
58243;BME280;50118;53.232;8.252;2022-07-17T11:55:37;102640.69;;;23.52;44.07
58243;BME280;50118;53.232;8.252;2022-07-17T11:58:03;102633.69;;;23.87;44.05
58243;BME280;50118;53.232;8.252;2022-07-17T12:00:29;102643.13;;;24.36;43.65
58243;BME280;50118;53.232;8.252;2022-07-17T12:02:59;102648.97;;;22.97;46.13
58243;BME280;50118;53.232;8.252;2022-07-17T12:05:29;102652.50;;;22.74;46.53
58243;BME280;50118;53.232;8.252;2022-07-17T12:07:55;102641.97;;;22.09;49.13
58243;BME280;50118;53.232;8.252;2022-07-17T12:10:24;102642.31;;;22.77;47.22
58243;BME280;50118;53.232;8.252;2022-07-17T12:12:56;102640.84;;;24.39;43.79
58243;BME280;50118;53.232;8.252;2022-07-17T12:15:37;102638.91;;;24.33;43.71
58243;BME280;50118;53.232;8.252;2022-07-17T12:18:04;102639.00;;;24.40;43.27
58243;BME280;50118;53.232;8.252;2022-07-17T12:20:50;102632.28;;;25.01;42.73
58243;BME280;50118;53.232;8.252;2022-07-17T12:23:37;102629.81;;;24.84;42.71
58243;BME280;50118;53.232;8.252;2022-07-17T12:26:10;102628.63;;;24.50;43.30
58243;BME280;50118;53.232;8.252;2022-07-17T12:28:36;102633.78;;;23.94;42.78
58243;BME280;50118;53.232;8.252;2022-07-17T12:31:02;102627.22;;;24.03;43.73
58243;BME280;50118;53.232;8.252;2022-07-17T12:33:28;102622.22;;;24.21;42.14
58243;BME280;50118;53.232;8.252;2022-07-17T12:35:54;102627.50;;;24.81;41.38
58243;BME280;50118;53.232;8.252;2022-07-17T12:38:19;102627.94;;;23.67;42.07
58243;BME280;50118;53.232;8.252;2022-07-17T12:40:45;102623.47;;;23.89;42.12
58243;BME280;50118;53.232;8.252;2022-07-17T12:43:10;102622.41;;;24.20;42.83
58243;BME280;50118;53.232;8.252;2022-07-17T12:45:35;102616.16;;;24.41;42.95
58243;BME280;50118;53.232;8.252;2022-07-17T12:48:01;102617.06;;;24.12;43.16
58243;BME280;50118;53.232;8.252;2022-07-17T12:50:26;102616.19;;;24.26;43.99
58243;BME280;50118;53.232;8.252;2022-07-17T12:52:52;102608.97;;;24.33;42.15
58243;BME280;50118;53.232;8.252;2022-07-17T12:55:17;102607.69;;;24.51;43.02
58243;BME280;50118;53.232;8.252;2022-07-17T12:57:43;102601.59;;;24.92;41.31
58243;BME280;50118;53.232;8.252;2022-07-17T13:00:09;102598.81;;;25.07;40.99
58243;BME280;50118;53.232;8.252;2022-07-17T13:02:35;102600.47;;;24.43;43.30
58243;BME280;50118;53.232;8.252;2022-07-17T13:05:00;102596.97;;;24.49;41.58